sensor_id;sensor_type;location;lat;lon;timestamp;P1;durP1;ratioP1;P2;durP2;ratioP2
75320;SDS011;68337;52.196;5.660;2024-01-30T00:00:14;19.70;;;13.73;;
75320;SDS011;68337;52.196;5.660;2024-01-30T00:02:40;19.75;;;13.95;;
75320;SDS011;68337;52.196;5.660;2024-01-30T00:05:08;19.75;;;13.40;;
75320;SDS011;68337;52.196;5.660;2024-01-30T00:07:33;20.70;;;14.40;;
75320;SDS011;68337;52.196;5.660;2024-01-30T00:09:59;17.10;;;12.73;;
75320;SDS011;68337;52.196;5.660;2024-01-30T00:12:25;21.77;;;14.20;;
75320;SDS011;68337;52.196;5.660;2024-01-30T00:14:51;17.33;;;13.63;;
75320;SDS011;68337;52.196;5.660;2024-01-30T00:17:17;17.80;;;12.80;;
75320;SDS011;68337;52.196;5.660;2024-01-30T00:19:44;17.80;;;12.75;;
75320;SDS011;68337;52.196;5.660;2024-01-30T00:22:09;16.83;;;13.05;;
75320;SDS011;68337;52.196;5.660;2024-01-30T00:24:35;18.33;;;13.18;;
75320;SDS011;68337;52.196;5.660;2024-01-30T00:27:01;18.42;;;12.88;;
75320;SDS011;68337;52.196;5.660;2024-01-30T00:29:26;20.55;;;12.90;;
75320;SDS011;68337;52.196;5.660;2024-01-30T00:31:55;16.55;;;12.77;;
75320;SDS011;68337;52.196;5.660;2024-01-30T00:34:21;18.35;;;12.60;;
75320;SDS011;68337;52.196;5.660;2024-01-30T00:36:46;16.85;;;12.90;;
75320;SDS011;68337;52.196;5.660;2024-01-30T00:39:12;17.25;;;11.95;;
75320;SDS011;68337;52.196;5.660;2024-01-30T00:41:40;17.38;;;11.95;;
75320;SDS011;68337;52.196;5.660;2024-01-30T00:44:06;14.15;;;11.95;;
75320;SDS011;68337;52.196;5.660;2024-01-30T00:46:32;16.13;;;12.32;;
75320;SDS011;68337;52.196;5.660;2024-01-30T00:48:57;15.00;;;11.70;;
75320;SDS011;68337;52.196;5.660;2024-01-30T00:51:23;15.10;;;11.38;;
75320;SDS011;68337;52.196;5.660;2024-01-30T00:53:49;13.93;;;11.45;;
75320;SDS011;68337;52.196;5.660;2024-01-30T00:56:15;18.33;;;12.35;;
75320;SDS011;68337;52.196;5.660;2024-01-30T00:58:43;17.15;;;11.90;;
75320;SDS011;68337;52.196;5.660;2024-01-30T01:01:09;16.27;;;12.32;;
75320;SDS011;68337;52.196;5.660;2024-01-30T01:03:34;16.67;;;12.35;;
75320;SDS011;68337;52.196;5.660;2024-01-30T01:06:00;21.38;;;13.07;;
75320;SDS011;68337;52.196;5.660;2024-01-30T01:08:26;16.00;;;13.05;;
75320;SDS011;68337;52.196;5.660;2024-01-30T01:10:51;17.00;;;12.50;;
75320;SDS011;68337;52.196;5.660;2024-01-30T01:13:17;15.60;;;12.18;;
75320;SDS011;68337;52.196;5.660;2024-01-30T01:15:43;18.30;;;13.05;;
75320;SDS011;68337;52.196;5.660;2024-01-30T01:18:08;17.80;;;13.48;;
75320;SDS011;68337;52.196;5.660;2024-01-30T01:20:34;16.02;;;12.65;;
75320;SDS011;68337;52.196;5.660;2024-01-30T01:23:00;19.98;;;13.45;;
75320;SDS011;68337;52.196;5.660;2024-01-30T01:25:25;19.60;;;12.68;;
75320;SDS011;68337;52.196;5.660;2024-01-30T01:27:51;16.67;;;12.52;;
75320;SDS011;68337;52.196;5.660;2024-01-30T01:30:17;14.93;;;12.85;;
75320;SDS011;68337;52.196;5.660;2024-01-30T01:32:47;17.50;;;12.80;;
75320;SDS011;68337;52.196;5.660;2024-01-30T01:35:20;18.65;;;13.48;;
75320;SDS011;68337;52.196;5.660;2024-01-30T01:37:47;19.63;;;13.00;;
75320;SDS011;68337;52.196;5.660;2024-01-30T01:40:22;15.95;;;12.32;;
75320;SDS011;68337;52.196;5.660;2024-01-30T01:42:49;15.35;;;12.55;;
75320;SDS011;68337;52.196;5.660;2024-01-30T01:45:17;17.90;;;13.00;;
75320;SDS011;68337;52.196;5.660;2024-01-30T01:47:47;18.30;;;12.90;;
75320;SDS011;68337;52.196;5.660;2024-01-30T01:50:16;16.88;;;12.07;;
75320;SDS011;68337;52.196;5.660;2024-01-30T01:52:44;18.67;;;13.65;;
75320;SDS011;68337;52.196;5.660;2024-01-30T01:55:13;17.48;;;12.70;;
75320;SDS011;68337;52.196;5.660;2024-01-30T01:57:39;18.15;;;13.10;;
75320;SDS011;68337;52.196;5.660;2024-01-30T02:00:06;16.48;;;12.73;;
75320;SDS011;68337;52.196;5.660;2024-01-30T02:02:37;20.35;;;12.80;;
75320;SDS011;68337;52.196;5.660;2024-01-30T02:05:08;18.50;;;13.20;;
75320;SDS011;68337;52.196;5.660;2024-01-30T02:07:34;19.83;;;12.32;;
75320;SDS011;68337;52.196;5.660;2024-01-30T02:10:00;17.50;;;12.82;;
75320;SDS011;68337;52.196;5.660;2024-01-30T02:12:25;17.67;;;12.70;;
75320;SDS011;68337;52.196;5.660;2024-01-30T02:14:51;18.30;;;13.23;;
75320;SDS011;68337;52.196;5.660;2024-01-30T02:17:17;16.83;;;12.07;;
75320;SDS011;68337;52.196;5.660;2024-01-30T02:19:42;17.58;;;12.50;;
75320;SDS011;68337;52.196;5.660;2024-01-30T02:22:08;15.80;;;11.80;;
75320;SDS011;68337;52.196;5.660;2024-01-30T02:24:35;16.52;;;12.32;;
75320;SDS011;68337;52.196;5.660;2024-01-30T02:27:00;14.25;;;11.30;;
75320;SDS011;68337;52.196;5.660;2024-01-30T02:29:26;16.55;;;11.82;;
75320;SDS011;68337;52.196;5.660;2024-01-30T02:31:52;17.10;;;11.68;;
75320;SDS011;68337;52.196;5.660;2024-01-30T02:34:18;16.55;;;11.50;;
75320;SDS011;68337;52.196;5.660;2024-01-30T02:36:44;13.50;;;11.02;;
75320;SDS011;68337;52.196;5.660;2024-01-30T02:39:10;13.63;;;11.00;;
75320;SDS011;68337;52.196;5.660;2024-01-30T02:41:36;16.58;;;11.40;;
75320;SDS011;68337;52.196;5.660;2024-01-30T02:44:02;15.07;;;11.30;;
75320;SDS011;68337;52.196;5.660;2024-01-30T02:46:29;14.40;;;11.45;;
75320;SDS011;68337;52.196;5.660;2024-01-30T02:48:54;16.98;;;11.80;;
75320;SDS011;68337;52.196;5.660;2024-01-30T02:51:20;15.75;;;11.00;;
75320;SDS011;68337;52.196;5.660;2024-01-30T02:53:46;15.07;;;10.85;;
75320;SDS011;68337;52.196;5.660;2024-01-30T02:56:11;13.95;;;10.93;;
75320;SDS011;68337;52.196;5.660;2024-01-30T02:58:38;15.88;;;10.63;;
75320;SDS011;68337;52.196;5.660;2024-01-30T03:01:05;13.52;;;10.35;;
75320;SDS011;68337;52.196;5.660;2024-01-30T03:03:31;15.07;;;11.07;;
75320;SDS011;68337;52.196;5.660;2024-01-30T03:05:57;18.02;;;11.23;;
75320;SDS011;68337;52.196;5.660;2024-01-30T03:08:23;17.15;;;11.07;;
75320;SDS011;68337;52.196;5.660;2024-01-30T03:10:48;13.85;;;10.88;;
75320;SDS011;68337;52.196;5.660;2024-01-30T03:13:14;16.13;;;10.90;;
75320;SDS011;68337;52.196;5.660;2024-01-30T03:15:40;13.98;;;10.23;;
75320;SDS011;68337;52.196;5.660;2024-01-30T03:18:05;13.85;;;10.70;;
75320;SDS011;68337;52.196;5.660;2024-01-30T03:20:31;13.65;;;11.05;;
75320;SDS011;68337;52.196;5.660;2024-01-30T03:22:59;18.23;;;11.55;;
75320;SDS011;68337;52.196;5.660;2024-01-30T03:25:25;15.73;;;11.80;;
75320;SDS011;68337;52.196;5.660;2024-01-30T03:27:51;16.10;;;12.02;;
75320;SDS011;68337;52.196;5.660;2024-01-30T03:30:16;16.80;;;11.93;;
75320;SDS011;68337;52.196;5.660;2024-01-30T03:32:42;19.92;;;12.23;;
75320;SDS011;68337;52.196;5.660;2024-01-30T03:35:09;18.08;;;12.05;;
75320;SDS011;68337;52.196;5.660;2024-01-30T03:37:34;17.98;;;13.00;;
75320;SDS011;68337;52.196;5.660;2024-01-30T03:40:01;20.17;;;13.65;;
75320;SDS011;68337;52.196;5.660;2024-01-30T03:42:28;17.58;;;12.95;;
75320;SDS011;68337;52.196;5.660;2024-01-30T03:44:53;17.35;;;12.25;;
75320;SDS011;68337;52.196;5.660;2024-01-30T03:47:20;16.92;;;13.35;;
75320;SDS011;68337;52.196;5.660;2024-01-30T03:49:46;18.70;;;13.10;;
75320;SDS011;68337;52.196;5.660;2024-01-30T03:52:12;17.95;;;12.65;;
75320;SDS011;68337;52.196;5.660;2024-01-30T03:54:37;16.13;;;11.95;;
75320;SDS011;68337;52.196;5.660;2024-01-30T03:57:03;20.58;;;12.50;;
75320;SDS011;68337;52.196;5.660;2024-01-30T03:59:30;18.27;;;12.15;;
75320;SDS011;68337;52.196;5.660;2024-01-30T04:01:56;15.40;;;11.98;;
75320;SDS011;68337;52.196;5.660;2024-01-30T04:04:21;16.85;;;12.50;;
75320;SDS011;68337;52.196;5.660;2024-01-30T04:06:48;17.55;;;11.55;;
75320;SDS011;68337;52.196;5.660;2024-01-30T04:09:14;17.25;;;12.57;;
75320;SDS011;68337;52.196;5.660;2024-01-30T04:11:40;17.85;;;12.45;;
75320;SDS011;68337;52.196;5.660;2024-01-30T04:14:07;16.15;;;12.07;;
75320;SDS011;68337;52.196;5.660;2024-01-30T04:16:33;16.33;;;12.63;;
75320;SDS011;68337;52.196;5.660;2024-01-30T04:18:59;17.67;;;12.50;;
75320;SDS011;68337;52.196;5.660;2024-01-30T04:21:25;20.50;;;13.23;;
75320;SDS011;68337;52.196;5.660;2024-01-30T04:23:51;19.27;;;12.95;;
75320;SDS011;68337;52.196;5.660;2024-01-30T04:26:17;16.05;;;11.73;;
75320;SDS011;68337;52.196;5.660;2024-01-30T04:28:46;16.05;;;12.85;;
75320;SDS011;68337;52.196;5.660;2024-01-30T04:31:11;21.15;;;13.45;;
75320;SDS011;68337;52.196;5.660;2024-01-30T04:33:37;18.88;;;12.90;;
75320;SDS011;68337;52.196;5.660;2024-01-30T04:36:03;18.75;;;13.15;;
75320;SDS011;68337;52.196;5.660;2024-01-30T04:38:29;17.55;;;14.50;;
75320;SDS011;68337;52.196;5.660;2024-01-30T04:40:56;18.42;;;13.23;;
75320;SDS011;68337;52.196;5.660;2024-01-30T04:43:22;16.38;;;13.00;;
75320;SDS011;68337;52.196;5.660;2024-01-30T04:45:48;16.00;;;12.45;;
75320;SDS011;68337;52.196;5.660;2024-01-30T04:48:14;19.25;;;12.88;;
75320;SDS011;68337;52.196;5.660;2024-01-30T04:50:40;15.63;;;12.77;;
75320;SDS011;68337;52.196;5.660;2024-01-30T04:53:05;18.67;;;12.60;;
75320;SDS011;68337;52.196;5.660;2024-01-30T04:55:34;18.23;;;12.63;;
75320;SDS011;68337;52.196;5.660;2024-01-30T04:58:01;18.77;;;12.57;;
75320;SDS011;68337;52.196;5.660;2024-01-30T05:00:27;19.88;;;12.30;;
75320;SDS011;68337;52.196;5.660;2024-01-30T05:02:55;19.65;;;12.73;;
75320;SDS011;68337;52.196;5.660;2024-01-30T05:05:24;16.63;;;12.02;;
75320;SDS011;68337;52.196;5.660;2024-01-30T05:07:49;17.88;;;12.73;;
75320;SDS011;68337;52.196;5.660;2024-01-30T05:10:15;18.00;;;12.77;;
75320;SDS011;68337;52.196;5.660;2024-01-30T05:12:40;21.90;;;13.48;;
75320;SDS011;68337;52.196;5.660;2024-01-30T05:15:06;20.13;;;14.45;;
75320;SDS011;68337;52.196;5.660;2024-01-30T05:17:32;16.90;;;12.98;;
75320;SDS011;68337;52.196;5.660;2024-01-30T05:19:58;21.73;;;14.10;;
75320;SDS011;68337;52.196;5.660;2024-01-30T05:22:24;18.70;;;13.23;;
75320;SDS011;68337;52.196;5.660;2024-01-30T05:24:49;19.15;;;14.00;;
75320;SDS011;68337;52.196;5.660;2024-01-30T05:27:15;18.48;;;13.55;;
75320;SDS011;68337;52.196;5.660;2024-01-30T05:29:40;24.17;;;14.70;;
75320;SDS011;68337;52.196;5.660;2024-01-30T05:32:08;22.92;;;14.52;;
75320;SDS011;68337;52.196;5.660;2024-01-30T05:34:35;22.60;;;14.73;;
75320;SDS011;68337;52.196;5.660;2024-01-30T05:37:01;19.95;;;13.65;;
75320;SDS011;68337;52.196;5.660;2024-01-30T05:39:27;21.17;;;14.57;;
75320;SDS011;68337;52.196;5.660;2024-01-30T05:41:52;18.42;;;14.18;;
75320;SDS011;68337;52.196;5.660;2024-01-30T05:44:18;19.67;;;14.55;;
75320;SDS011;68337;52.196;5.660;2024-01-30T05:46:43;17.88;;;13.45;;
75320;SDS011;68337;52.196;5.660;2024-01-30T05:49:09;20.98;;;13.73;;
75320;SDS011;68337;52.196;5.660;2024-01-30T05:51:35;19.70;;;13.85;;
75320;SDS011;68337;52.196;5.660;2024-01-30T05:54:00;20.95;;;14.68;;
75320;SDS011;68337;52.196;5.660;2024-01-30T05:56:28;18.60;;;13.68;;
75320;SDS011;68337;52.196;5.660;2024-01-30T05:58:54;19.52;;;13.10;;
75320;SDS011;68337;52.196;5.660;2024-01-30T06:01:20;20.67;;;13.10;;
75320;SDS011;68337;52.196;5.660;2024-01-30T06:03:46;20.95;;;13.18;;
75320;SDS011;68337;52.196;5.660;2024-01-30T06:06:11;16.55;;;12.68;;
75320;SDS011;68337;52.196;5.660;2024-01-30T06:08:37;16.45;;;12.57;;
75320;SDS011;68337;52.196;5.660;2024-01-30T06:11:03;18.50;;;13.65;;
75320;SDS011;68337;52.196;5.660;2024-01-30T06:13:29;18.98;;;12.68;;
75320;SDS011;68337;52.196;5.660;2024-01-30T06:15:56;16.48;;;11.73;;
75320;SDS011;68337;52.196;5.660;2024-01-30T06:18:25;19.48;;;13.55;;
75320;SDS011;68337;52.196;5.660;2024-01-30T06:20:52;16.67;;;12.65;;
75320;SDS011;68337;52.196;5.660;2024-01-30T06:23:17;16.42;;;12.45;;
75320;SDS011;68337;52.196;5.660;2024-01-30T06:25:43;16.25;;;12.55;;
75320;SDS011;68337;52.196;5.660;2024-01-30T06:28:09;15.02;;;12.18;;
75320;SDS011;68337;52.196;5.660;2024-01-30T06:30:35;16.15;;;11.85;;
75320;SDS011;68337;52.196;5.660;2024-01-30T06:33:00;16.70;;;11.75;;
75320;SDS011;68337;52.196;5.660;2024-01-30T06:35:26;16.85;;;12.35;;
75320;SDS011;68337;52.196;5.660;2024-01-30T06:37:53;15.30;;;11.80;;
75320;SDS011;68337;52.196;5.660;2024-01-30T06:40:19;18.70;;;11.35;;
75320;SDS011;68337;52.196;5.660;2024-01-30T06:42:45;20.73;;;11.95;;
75320;SDS011;68337;52.196;5.660;2024-01-30T06:45:10;16.58;;;12.30;;
75320;SDS011;68337;52.196;5.660;2024-01-30T06:47:36;15.88;;;11.52;;
75320;SDS011;68337;52.196;5.660;2024-01-30T06:50:02;16.90;;;11.75;;
75320;SDS011;68337;52.196;5.660;2024-01-30T06:52:28;15.35;;;11.38;;
75320;SDS011;68337;52.196;5.660;2024-01-30T06:54:54;17.15;;;11.18;;
75320;SDS011;68337;52.196;5.660;2024-01-30T06:57:19;15.65;;;11.35;;
75320;SDS011;68337;52.196;5.660;2024-01-30T06:59:45;16.25;;;10.85;;
75320;SDS011;68337;52.196;5.660;2024-01-30T07:02:11;13.23;;;11.25;;
75320;SDS011;68337;52.196;5.660;2024-01-30T07:04:37;18.65;;;10.95;;
75320;SDS011;68337;52.196;5.660;2024-01-30T07:07:03;15.80;;;10.95;;
75320;SDS011;68337;52.196;5.660;2024-01-30T07:09:30;16.80;;;10.48;;
75320;SDS011;68337;52.196;5.660;2024-01-30T07:11:56;14.27;;;11.48;;
75320;SDS011;68337;52.196;5.660;2024-01-30T07:14:23;12.88;;;10.20;;
75320;SDS011;68337;52.196;5.660;2024-01-30T07:16:52;14.02;;;10.60;;
75320;SDS011;68337;52.196;5.660;2024-01-30T07:19:18;17.77;;;11.63;;
75320;SDS011;68337;52.196;5.660;2024-01-30T07:21:43;17.75;;;11.73;;
75320;SDS011;68337;52.196;5.660;2024-01-30T07:24:09;16.05;;;11.23;;
75320;SDS011;68337;52.196;5.660;2024-01-30T07:26:35;14.35;;;10.80;;
75320;SDS011;68337;52.196;5.660;2024-01-30T07:29:00;17.65;;;10.77;;
75320;SDS011;68337;52.196;5.660;2024-01-30T07:31:26;16.38;;;11.15;;
75320;SDS011;68337;52.196;5.660;2024-01-30T07:33:52;13.43;;;10.02;;
75320;SDS011;68337;52.196;5.660;2024-01-30T07:36:19;17.63;;;10.73;;
75320;SDS011;68337;52.196;5.660;2024-01-30T07:38:45;15.07;;;11.10;;
75320;SDS011;68337;52.196;5.660;2024-01-30T07:41:10;15.98;;;10.52;;
75320;SDS011;68337;52.196;5.660;2024-01-30T07:43:37;17.88;;;10.50;;
75320;SDS011;68337;52.196;5.660;2024-01-30T07:46:03;16.52;;;10.80;;
75320;SDS011;68337;52.196;5.660;2024-01-30T07:48:31;13.98;;;10.30;;
75320;SDS011;68337;52.196;5.660;2024-01-30T07:50:59;14.60;;;10.73;;
75320;SDS011;68337;52.196;5.660;2024-01-30T07:53:24;16.38;;;10.85;;
75320;SDS011;68337;52.196;5.660;2024-01-30T07:55:50;14.10;;;10.32;;
75320;SDS011;68337;52.196;5.660;2024-01-30T07:58:16;15.52;;;10.02;;
75320;SDS011;68337;52.196;5.660;2024-01-30T08:00:41;14.65;;;10.40;;
75320;SDS011;68337;52.196;5.660;2024-01-30T08:03:07;15.07;;;10.10;;
75320;SDS011;68337;52.196;5.660;2024-01-30T08:05:33;13.65;;;10.63;;
75320;SDS011;68337;52.196;5.660;2024-01-30T08:07:58;18.05;;;11.40;;
75320;SDS011;68337;52.196;5.660;2024-01-30T08:10:24;16.70;;;10.40;;
75320;SDS011;68337;52.196;5.660;2024-01-30T08:12:50;17.73;;;11.35;;
75320;SDS011;68337;52.196;5.660;2024-01-30T08:15:15;15.50;;;11.13;;
75320;SDS011;68337;52.196;5.660;2024-01-30T08:17:41;15.60;;;10.60;;
75320;SDS011;68337;52.196;5.660;2024-01-30T08:20:07;14.32;;;10.95;;
75320;SDS011;68337;52.196;5.660;2024-01-30T08:22:35;19.88;;;11.65;;
75320;SDS011;68337;52.196;5.660;2024-01-30T08:25:03;12.85;;;9.65;;
75320;SDS011;68337;52.196;5.660;2024-01-30T08:27:29;15.43;;;11.35;;
75320;SDS011;68337;52.196;5.660;2024-01-30T08:29:54;14.65;;;9.45;;
75320;SDS011;68337;52.196;5.660;2024-01-30T08:32:20;20.52;;;11.85;;
75320;SDS011;68337;52.196;5.660;2024-01-30T08:34:46;13.77;;;10.73;;
75320;SDS011;68337;52.196;5.660;2024-01-30T08:37:11;14.48;;;10.80;;
75320;SDS011;68337;52.196;5.660;2024-01-30T08:39:38;16.13;;;10.63;;
75320;SDS011;68337;52.196;5.660;2024-01-30T08:42:04;14.80;;;11.10;;
75320;SDS011;68337;52.196;5.660;2024-01-30T08:44:30;15.45;;;11.48;;
75320;SDS011;68337;52.196;5.660;2024-01-30T08:46:55;14.48;;;10.98;;
75320;SDS011;68337;52.196;5.660;2024-01-30T08:49:21;14.60;;;9.85;;
75320;SDS011;68337;52.196;5.660;2024-01-30T08:51:47;12.90;;;10.40;;
75320;SDS011;68337;52.196;5.660;2024-01-30T08:54:13;11.52;;;9.27;;
75320;SDS011;68337;52.196;5.660;2024-01-30T08:56:39;16.77;;;9.88;;
75320;SDS011;68337;52.196;5.660;2024-01-30T08:59:04;14.25;;;10.07;;
75320;SDS011;68337;52.196;5.660;2024-01-30T09:01:30;14.32;;;9.93;;
75320;SDS011;68337;52.196;5.660;2024-01-30T09:03:56;16.90;;;9.65;;
75320;SDS011;68337;52.196;5.660;2024-01-30T09:06:21;16.38;;;11.23;;
75320;SDS011;68337;52.196;5.660;2024-01-30T09:08:47;17.65;;;10.77;;
75320;SDS011;68337;52.196;5.660;2024-01-30T09:11:13;13.35;;;10.15;;
75320;SDS011;68337;52.196;5.660;2024-01-30T09:13:39;18.20;;;11.23;;
75320;SDS011;68337;52.196;5.660;2024-01-30T09:16:05;14.85;;;10.63;;
75320;SDS011;68337;52.196;5.660;2024-01-30T09:18:32;17.80;;;10.60;;
75320;SDS011;68337;52.196;5.660;2024-01-30T09:20:58;17.42;;;10.15;;
75320;SDS011;68337;52.196;5.660;2024-01-30T09:23:24;15.30;;;9.73;;
75320;SDS011;68337;52.196;5.660;2024-01-30T09:25:50;15.10;;;11.10;;
75320;SDS011;68337;52.196;5.660;2024-01-30T09:28:16;16.48;;;9.95;;
75320;SDS011;68337;52.196;5.660;2024-01-30T09:30:42;14.57;;;10.80;;
75320;SDS011;68337;52.196;5.660;2024-01-30T09:33:08;22.20;;;10.48;;
75320;SDS011;68337;52.196;5.660;2024-01-30T09:35:34;15.73;;;11.38;;
75320;SDS011;68337;52.196;5.660;2024-01-30T09:37:59;18.10;;;10.65;;
75320;SDS011;68337;52.196;5.660;2024-01-30T09:40:25;15.88;;;11.15;;
75320;SDS011;68337;52.196;5.660;2024-01-30T09:42:51;15.15;;;11.57;;
75320;SDS011;68337;52.196;5.660;2024-01-30T09:45:18;17.45;;;10.75;;
75320;SDS011;68337;52.196;5.660;2024-01-30T09:47:44;16.35;;;11.18;;
75320;SDS011;68337;52.196;5.660;2024-01-30T09:50:12;15.95;;;10.90;;
75320;SDS011;68337;52.196;5.660;2024-01-30T09:52:39;18.38;;;11.25;;
75320;SDS011;68337;52.196;5.660;2024-01-30T09:55:05;13.63;;;9.85;;
75320;SDS011;68337;52.196;5.660;2024-01-30T09:57:32;15.40;;;9.77;;
75320;SDS011;68337;52.196;5.660;2024-01-30T10:00:01;17.40;;;10.23;;
75320;SDS011;68337;52.196;5.660;2024-01-30T10:02:29;17.55;;;10.20;;
75320;SDS011;68337;52.196;5.660;2024-01-30T10:04:57;13.88;;;9.88;;
75320;SDS011;68337;52.196;5.660;2024-01-30T10:07:22;15.60;;;10.13;;
75320;SDS011;68337;52.196;5.660;2024-01-30T10:09:48;16.50;;;10.73;;
75320;SDS011;68337;52.196;5.660;2024-01-30T10:12:14;16.90;;;10.85;;
75320;SDS011;68337;52.196;5.660;2024-01-30T10:14:41;17.10;;;10.05;;
75320;SDS011;68337;52.196;5.660;2024-01-30T10:17:09;15.80;;;10.77;;
75320;SDS011;68337;52.196;5.660;2024-01-30T10:19:36;23.13;;;10.35;;
75320;SDS011;68337;52.196;5.660;2024-01-30T10:22:03;16.05;;;10.55;;
75320;SDS011;68337;52.196;5.660;2024-01-30T10:24:29;17.50;;;10.25;;
75320;SDS011;68337;52.196;5.660;2024-01-30T10:26:56;18.63;;;10.55;;
75320;SDS011;68337;52.196;5.660;2024-01-30T10:29:22;16.58;;;10.88;;
75320;SDS011;68337;52.196;5.660;2024-01-30T10:32:01;15.43;;;9.95;;
75320;SDS011;68337;52.196;5.660;2024-01-30T10:34:28;16.42;;;9.50;;
75320;SDS011;68337;52.196;5.660;2024-01-30T10:36:58;17.70;;;8.82;;
75320;SDS011;68337;52.196;5.660;2024-01-30T10:39:31;16.05;;;9.73;;
75320;SDS011;68337;52.196;5.660;2024-01-30T10:42:03;12.45;;;8.88;;
75320;SDS011;68337;52.196;5.660;2024-01-30T10:44:33;15.82;;;9.13;;
75320;SDS011;68337;52.196;5.660;2024-01-30T10:47:06;11.77;;;8.43;;
75320;SDS011;68337;52.196;5.660;2024-01-30T10:49:36;13.38;;;9.18;;
75320;SDS011;68337;52.196;5.660;2024-01-30T10:52:03;13.88;;;8.90;;
75320;SDS011;68337;52.196;5.660;2024-01-30T10:54:30;14.50;;;8.05;;
75320;SDS011;68337;52.196;5.660;2024-01-30T10:57:00;13.85;;;8.52;;
75320;SDS011;68337;52.196;5.660;2024-01-30T10:59:28;18.35;;;9.00;;
75320;SDS011;68337;52.196;5.660;2024-01-30T11:01:56;13.68;;;8.30;;
75320;SDS011;68337;52.196;5.660;2024-01-30T11:04:23;14.65;;;8.50;;
75320;SDS011;68337;52.196;5.660;2024-01-30T11:06:50;10.75;;;8.23;;
75320;SDS011;68337;52.196;5.660;2024-01-30T11:09:17;13.30;;;8.52;;
75320;SDS011;68337;52.196;5.660;2024-01-30T11:11:49;14.77;;;8.27;;
75320;SDS011;68337;52.196;5.660;2024-01-30T11:14:16;11.77;;;7.72;;
75320;SDS011;68337;52.196;5.660;2024-01-30T11:16:47;11.75;;;7.70;;
75320;SDS011;68337;52.196;5.660;2024-01-30T11:19:14;13.45;;;7.53;;
75320;SDS011;68337;52.196;5.660;2024-01-30T11:21:41;12.73;;;7.88;;
75320;SDS011;68337;52.196;5.660;2024-01-30T11:24:08;16.10;;;7.75;;
75320;SDS011;68337;52.196;5.660;2024-01-30T11:26:33;13.68;;;7.47;;
75320;SDS011;68337;52.196;5.660;2024-01-30T11:29:02;9.65;;;7.43;;
75320;SDS011;68337;52.196;5.660;2024-01-30T11:31:29;12.23;;;6.97;;
75320;SDS011;68337;52.196;5.660;2024-01-30T11:33:56;16.33;;;8.05;;
75320;SDS011;68337;52.196;5.660;2024-01-30T11:36:24;11.32;;;7.55;;
75320;SDS011;68337;52.196;5.660;2024-01-30T11:38:51;12.75;;;7.38;;
75320;SDS011;68337;52.196;5.660;2024-01-30T11:41:17;10.32;;;7.72;;
75320;SDS011;68337;52.196;5.660;2024-01-30T11:43:50;11.65;;;6.97;;
75320;SDS011;68337;52.196;5.660;2024-01-30T11:46:17;9.95;;;7.03;;
75320;SDS011;68337;52.196;5.660;2024-01-30T11:48:42;8.15;;;6.57;;
75320;SDS011;68337;52.196;5.660;2024-01-30T11:51:08;12.40;;;7.32;;
75320;SDS011;68337;52.196;5.660;2024-01-30T11:53:34;10.82;;;6.65;;
75320;SDS011;68337;52.196;5.660;2024-01-30T11:55:59;9.48;;;6.47;;
75320;SDS011;68337;52.196;5.660;2024-01-30T11:58:25;11.80;;;7.07;;
75320;SDS011;68337;52.196;5.660;2024-01-30T12:00:53;9.30;;;5.38;;
75320;SDS011;68337;52.196;5.660;2024-01-30T12:03:20;11.40;;;4.80;;
75320;SDS011;68337;52.196;5.660;2024-01-30T12:05:46;4.97;;;3.60;;
75320;SDS011;68337;52.196;5.660;2024-01-30T12:08:19;5.63;;;3.47;;
75320;SDS011;68337;52.196;5.660;2024-01-30T12:10:45;11.60;;;3.33;;
75320;SDS011;68337;52.196;5.660;2024-01-30T12:13:11;6.35;;;3.05;;
75320;SDS011;68337;52.196;5.660;2024-01-30T12:15:37;5.32;;;2.90;;
75320;SDS011;68337;52.196;5.660;2024-01-30T12:18:04;6.43;;;2.75;;
75320;SDS011;68337;52.196;5.660;2024-01-30T12:20:30;4.25;;;2.45;;
75320;SDS011;68337;52.196;5.660;2024-01-30T12:22:56;5.63;;;2.03;;
75320;SDS011;68337;52.196;5.660;2024-01-30T12:25:22;9.35;;;2.15;;
75320;SDS011;68337;52.196;5.660;2024-01-30T12:27:49;6.07;;;2.00;;
75320;SDS011;68337;52.196;5.660;2024-01-30T12:30:16;5.53;;;2.10;;
75320;SDS011;68337;52.196;5.660;2024-01-30T12:32:43;7.80;;;2.03;;
75320;SDS011;68337;52.196;5.660;2024-01-30T12:35:10;5.20;;;2.15;;
75320;SDS011;68337;52.196;5.660;2024-01-30T12:37:37;3.70;;;1.70;;
75320;SDS011;68337;52.196;5.660;2024-01-30T12:40:03;5.13;;;1.63;;
75320;SDS011;68337;52.196;5.660;2024-01-30T12:42:31;4.25;;;2.00;;
75320;SDS011;68337;52.196;5.660;2024-01-30T12:44:57;4.80;;;2.40;;
75320;SDS011;68337;52.196;5.660;2024-01-30T12:47:23;7.78;;;2.42;;
75320;SDS011;68337;52.196;5.660;2024-01-30T12:49:49;5.65;;;2.60;;
75320;SDS011;68337;52.196;5.660;2024-01-30T12:52:18;6.38;;;3.00;;
75320;SDS011;68337;52.196;5.660;2024-01-30T12:54:45;5.85;;;3.55;;
75320;SDS011;68337;52.196;5.660;2024-01-30T12:57:11;6.93;;;4.00;;
75320;SDS011;68337;52.196;5.660;2024-01-30T12:59:37;8.48;;;3.70;;
75320;SDS011;68337;52.196;5.660;2024-01-30T13:02:02;9.00;;;2.80;;
75320;SDS011;68337;52.196;5.660;2024-01-30T13:04:29;5.28;;;3.50;;
75320;SDS011;68337;52.196;5.660;2024-01-30T13:06:54;9.82;;;3.33;;
75320;SDS011;68337;52.196;5.660;2024-01-30T13:09:20;3.35;;;2.65;;
75320;SDS011;68337;52.196;5.660;2024-01-30T13:11:47;7.35;;;3.38;;
75320;SDS011;68337;52.196;5.660;2024-01-30T13:14:13;8.07;;;3.45;;
75320;SDS011;68337;52.196;5.660;2024-01-30T13:16:39;3.65;;;2.65;;
75320;SDS011;68337;52.196;5.660;2024-01-30T13:19:05;6.30;;;3.63;;
75320;SDS011;68337;52.196;5.660;2024-01-30T13:21:31;8.75;;;3.60;;
75320;SDS011;68337;52.196;5.660;2024-01-30T13:23:56;4.80;;;2.97;;
75320;SDS011;68337;52.196;5.660;2024-01-30T13:26:22;8.88;;;3.30;;
75320;SDS011;68337;52.196;5.660;2024-01-30T13:28:48;6.13;;;3.25;;
75320;SDS011;68337;52.196;5.660;2024-01-30T13:31:13;8.45;;;3.17;;
75320;SDS011;68337;52.196;5.660;2024-01-30T13:33:39;5.85;;;2.63;;
75320;SDS011;68337;52.196;5.660;2024-01-30T13:36:06;4.32;;;2.65;;
75320;SDS011;68337;52.196;5.660;2024-01-30T13:38:33;5.47;;;2.80;;
75320;SDS011;68337;52.196;5.660;2024-01-30T13:41:02;6.00;;;2.53;;
75320;SDS011;68337;52.196;5.660;2024-01-30T13:43:28;5.43;;;2.30;;
75320;SDS011;68337;52.196;5.660;2024-01-30T13:45:53;6.03;;;2.20;;
75320;SDS011;68337;52.196;5.660;2024-01-30T13:48:20;3.83;;;2.22;;
75320;SDS011;68337;52.196;5.660;2024-01-30T13:50:45;4.70;;;2.20;;
75320;SDS011;68337;52.196;5.660;2024-01-30T13:53:11;5.22;;;1.70;;
75320;SDS011;68337;52.196;5.660;2024-01-30T13:55:37;2.75;;;1.67;;
75320;SDS011;68337;52.196;5.660;2024-01-30T13:58:04;2.28;;;1.55;;
75320;SDS011;68337;52.196;5.660;2024-01-30T14:00:30;2.08;;;1.58;;
75320;SDS011;68337;52.196;5.660;2024-01-30T14:02:56;4.53;;;1.70;;
75320;SDS011;68337;52.196;5.660;2024-01-30T14:05:23;15.88;;;14.52;;
75320;SDS011;68337;52.196;5.660;2024-01-30T14:07:49;14.63;;;13.27;;
75320;SDS011;68337;52.196;5.660;2024-01-30T14:10:16;3.05;;;2.25;;
75320;SDS011;68337;52.196;5.660;2024-01-30T14:12:42;6.95;;;2.38;;
75320;SDS011;68337;52.196;5.660;2024-01-30T14:15:09;2.60;;;2.40;;
75320;SDS011;68337;52.196;5.660;2024-01-30T14:17:36;3.10;;;2.30;;
75320;SDS011;68337;52.196;5.660;2024-01-30T14:20:02;9.10;;;6.80;;
75320;SDS011;68337;52.196;5.660;2024-01-30T14:22:29;4.82;;;3.83;;